Погода Алмалыбакна неделю

Алматинская область, Казахстан

23 - 29 июля
  • 23июля
    Сегодня
    +21°
    +33°
    Небольшая облачность
    ВремяПогодаТемператураВлажностьДавлениеВетер, м/сВероятность осадков
    02:00Ясно и безоблачно+22°C45 %682 мм0.3 м/с2 %
    05:00Ясно и безоблачно+19°C36 %682 мм0.3 м/с2 %
    08:00Ясно и безоблачно+27°C44 %684 мм0.2 м/с2 %
    11:00Ясно и безоблачно+31°C36 %684 мм0.6 м/с2 %
    14:00Небольшая облачность+34°C32 %683 мм0.8 м/с7 %
    17:00Облачно с прояснениями+33°C35 %683 мм0.3 м/с20 %
    20:00Пасмурно, сплошная облачность+28°C49 %682 мм0.9 м/с22 %
    23:00Облачно с прояснениями+25°C60 %682 мм0.6 м/с21 %
  • 24июля
    Среда
    +21°
    +33°
    Небольшая облачность
    ВремяПогодаТемператураВлажностьДавлениеВетер, м/сВероятность осадков
    02:00Небольшая облачность+23°C59 %682 мм0.3 м/с11 %
    05:00Практически безоблачно+23°C56 %683 мм0.3 м/с12 %
    08:00Ясно и безоблачно+26°C52 %683 мм0.3 м/с6 %
    11:00Практически безоблачно+32°C42 %683 мм0.6 м/с9 %
    14:00Небольшая облачность+33°C35 %683 мм0.8 м/с21 %
    17:00Небольшая облачность+32°C35 %682 мм0.4 м/с11 %
    20:00Ясно и безоблачно+27°C50 %682 мм0.8 м/с2 %
    23:00Ясно и безоблачно+25°C48 %681 мм0.7 м/с2 %
  • 25июля
    Четверг
    +22°
    +35°
    Небольшая облачность
    ВремяПогодаТемператураВлажностьДавлениеВетер, м/сВероятность осадков
    02:00Ясно и безоблачно+23°C44 %680 мм0.3 м/с2 %
    05:00Ясно и безоблачно+22°C46 %680 мм0.3 м/с2 %
    08:00Ясно и безоблачно+27°C44 %682 мм0.2 м/с2 %
    11:00Практически безоблачно+33°C33 %682 мм0.6 м/с4 %
    14:00Небольшая облачность+34°C30 %682 мм1.0 м/с22 %
    17:00Небольшая облачность+34°C32 %683 мм0.4 м/с9 %
    20:00Небольшая облачность+29°C44 %682 мм0.7 м/с3 %
    23:00Практически безоблачно+27°C46 %682 мм0.6 м/с2 %
  • 26июля
    Пятница
    +23°
    +38°
    Ясно и безоблачно
    ВремяПогодаТемператураВлажностьДавлениеВетер, м/сВероятность осадков
    02:00Ясно и безоблачно+24°C47 %681 мм0.3 м/с2 %
    05:00Небольшая облачность+23°C48 %681 мм0.3 м/с2 %
    08:00Ясно и безоблачно+30°C40 %683 мм0.2 м/с2 %
    11:00Ясно и безоблачно+36°C29 %684 мм0.8 м/с2 %
    14:00Ясно и безоблачно+37°C24 %684 мм1.0 м/с2 %
    17:00Ясно и безоблачно+36°C27 %684 мм0.4 м/с2 %
    20:00Ясно и безоблачно+29°C41 %684 мм0.8 м/с2 %
    23:00Ясно и безоблачно+27°C42 %683 мм0.6 м/с2 %
  • 27июля
    Суббота
    +24°
    +38°
    Ясно и безоблачно
    ВремяПогодаТемператураВлажностьДавлениеВетер, м/сВероятность осадков
    02:00Ясно и безоблачно+26°C42 %683 мм0.3 м/с2 %
    05:00Ясно и безоблачно+24°C40 %683 мм0.3 м/с2 %
    08:00Ясно и безоблачно+30°C37 %684 мм0.2 м/с2 %
    11:00Ясно и безоблачно+36°C26 %685 мм0.6 м/с2 %
    14:00Ясно и безоблачно+37°C19 %685 мм0.9 м/с2 %
    17:00Ясно и безоблачно+37°C24 %685 мм0.4 м/с2 %
    20:00Ясно и безоблачно+31°C39 %684 мм0.7 м/с2 %
    23:00Ясно и безоблачно+28°C36 %683 мм0.7 м/с2 %
Мы используем cookies
Соглашаюсь